sensor_id;sensor_type;location;lat;lon;timestamp;P1;durP1;ratioP1;P2;durP2;ratioP2
60257;SDS011;46115;44.484;11.314;2023-08-20T00:03:35;10.38;;;8.73;;
60257;SDS011;46115;44.484;11.314;2023-08-20T00:07:38;10.07;;;9.05;;
60257;SDS011;46115;44.484;11.314;2023-08-20T00:11:41;10.38;;;9.13;;
60257;SDS011;46115;44.484;11.314;2023-08-20T00:15:46;10.00;;;9.00;;
60257;SDS011;46115;44.484;11.314;2023-08-20T00:19:48;10.88;;;9.05;;
60257;SDS011;46115;44.484;11.314;2023-08-20T00:23:51;9.68;;;8.68;;
60257;SDS011;46115;44.484;11.314;2023-08-20T00:27:54;10.35;;;9.25;;
60257;SDS011;46115;44.484;11.314;2023-08-20T00:31:58;17.15;;;9.35;;
60257;SDS011;46115;44.484;11.314;2023-08-20T00:36:01;11.55;;;9.43;;
60257;SDS011;46115;44.484;11.314;2023-08-20T00:40:03;12.32;;;9.23;;
60257;SDS011;46115;44.484;11.314;2023-08-20T00:44:07;11.13;;;9.95;;
60257;SDS011;46115;44.484;11.314;2023-08-20T00:48:11;11.43;;;9.60;;
60257;SDS011;46115;44.484;11.314;2023-08-20T00:52:14;11.02;;;9.02;;
60257;SDS011;46115;44.484;11.314;2023-08-20T00:56:18;11.25;;;9.70;;
60257;SDS011;46115;44.484;11.314;2023-08-20T01:00:21;11.98;;;9.00;;
60257;SDS011;46115;44.484;11.314;2023-08-20T01:04:27;11.70;;;9.95;;
60257;SDS011;46115;44.484;11.314;2023-08-20T01:08:33;12.38;;;9.35;;
60257;SDS011;46115;44.484;11.314;2023-08-20T01:12:41;10.90;;;9.48;;
60257;SDS011;46115;44.484;11.314;2023-08-20T01:16:45;13.38;;;9.35;;
60257;SDS011;46115;44.484;11.314;2023-08-20T01:20:52;10.52;;;9.52;;
60257;SDS011;46115;44.484;11.314;2023-08-20T01:25:03;10.93;;;9.85;;
60257;SDS011;46115;44.484;11.314;2023-08-20T01:29:14;14.77;;;10.18;;
60257;SDS011;46115;44.484;11.314;2023-08-20T01:33:17;11.75;;;10.43;;
60257;SDS011;46115;44.484;11.314;2023-08-20T01:37:21;10.30;;;9.20;;
60257;SDS011;46115;44.484;11.314;2023-08-20T01:41:24;11.25;;;9.95;;
60257;SDS011;46115;44.484;11.314;2023-08-20T01:45:28;12.13;;;9.85;;
60257;SDS011;46115;44.484;11.314;2023-08-20T01:49:30;11.15;;;10.00;;
60257;SDS011;46115;44.484;11.314;2023-08-20T01:53:33;12.07;;;9.45;;
60257;SDS011;46115;44.484;11.314;2023-08-20T01:57:35;12.63;;;9.82;;
60257;SDS011;46115;44.484;11.314;2023-08-20T02:01:39;10.68;;;9.43;;
60257;SDS011;46115;44.484;11.314;2023-08-20T02:05:42;13.38;;;9.77;;
60257;SDS011;46115;44.484;11.314;2023-08-20T02:09:44;12.25;;;9.65;;
60257;SDS011;46115;44.484;11.314;2023-08-20T02:13:47;13.70;;;9.65;;
60257;SDS011;46115;44.484;11.314;2023-08-20T02:17:51;11.30;;;10.23;;
60257;SDS011;46115;44.484;11.314;2023-08-20T02:21:54;12.32;;;10.07;;
60257;SDS011;46115;44.484;11.314;2023-08-20T02:25:56;11.45;;;10.13;;
60257;SDS011;46115;44.484;11.314;2023-08-20T02:29:59;11.23;;;10.13;;
60257;SDS011;46115;44.484;11.314;2023-08-20T02:34:03;11.30;;;10.25;;
60257;SDS011;46115;44.484;11.314;2023-08-20T02:38:05;12.52;;;10.35;;
60257;SDS011;46115;44.484;11.314;2023-08-20T02:42:10;12.55;;;10.70;;
60257;SDS011;46115;44.484;11.314;2023-08-20T02:46:12;11.25;;;10.13;;
60257;SDS011;46115;44.484;11.314;2023-08-20T02:50:17;14.30;;;9.98;;
60257;SDS011;46115;44.484;11.314;2023-08-20T02:54:20;13.75;;;10.20;;
60257;SDS011;46115;44.484;11.314;2023-08-20T02:58:22;12.27;;;10.45;;
60257;SDS011;46115;44.484;11.314;2023-08-20T03:02:25;12.82;;;10.52;;
60257;SDS011;46115;44.484;11.314;2023-08-20T03:06:29;10.90;;;9.90;;
60257;SDS011;46115;44.484;11.314;2023-08-20T03:10:31;13.90;;;10.68;;
60257;SDS011;46115;44.484;11.314;2023-08-20T03:14:34;13.70;;;10.30;;
60257;SDS011;46115;44.484;11.314;2023-08-20T03:18:37;12.82;;;10.50;;
60257;SDS011;46115;44.484;11.314;2023-08-20T03:22:41;14.02;;;10.52;;
60257;SDS011;46115;44.484;11.314;2023-08-20T03:26:43;11.63;;;10.43;;
60257;SDS011;46115;44.484;11.314;2023-08-20T03:30:47;12.50;;;10.25;;
60257;SDS011;46115;44.484;11.314;2023-08-20T03:34:52;13.93;;;10.85;;
60257;SDS011;46115;44.484;11.314;2023-08-20T03:38:58;14.68;;;10.32;;
60257;SDS011;46115;44.484;11.314;2023-08-20T03:43:00;15.68;;;10.27;;
60257;SDS011;46115;44.484;11.314;2023-08-20T03:47:04;11.27;;;10.07;;
60257;SDS011;46115;44.484;11.314;2023-08-20T03:51:07;10.70;;;9.70;;
60257;SDS011;46115;44.484;11.314;2023-08-20T03:55:11;12.32;;;10.23;;
60257;SDS011;46115;44.484;11.314;2023-08-20T03:59:13;15.05;;;9.85;;
60257;SDS011;46115;44.484;11.314;2023-08-20T04:03:16;11.25;;;9.85;;
60257;SDS011;46115;44.484;11.314;2023-08-20T04:07:20;12.25;;;10.38;;
60257;SDS011;46115;44.484;11.314;2023-08-20T04:11:24;11.50;;;10.30;;
60257;SDS011;46115;44.484;11.314;2023-08-20T04:15:26;12.45;;;10.10;;
60257;SDS011;46115;44.484;11.314;2023-08-20T04:19:29;11.20;;;10.05;;
60257;SDS011;46115;44.484;11.314;2023-08-20T04:23:31;13.65;;;10.20;;
60257;SDS011;46115;44.484;11.314;2023-08-20T04:27:36;13.30;;;9.65;;
60257;SDS011;46115;44.484;11.314;2023-08-20T04:31:39;11.32;;;9.88;;
60257;SDS011;46115;44.484;11.314;2023-08-20T04:35:44;12.38;;;9.52;;
60257;SDS011;46115;44.484;11.314;2023-08-20T04:39:46;11.50;;;10.20;;
60257;SDS011;46115;44.484;11.314;2023-08-20T04:43:51;10.55;;;9.48;;
60257;SDS011;46115;44.484;11.314;2023-08-20T04:47:55;10.82;;;9.60;;
60257;SDS011;46115;44.484;11.314;2023-08-20T04:51:57;14.10;;;10.15;;
60257;SDS011;46115;44.484;11.314;2023-08-20T04:56:00;10.98;;;9.88;;
60257;SDS011;46115;44.484;11.314;2023-08-20T05:00:05;11.02;;;9.93;;
60257;SDS011;46115;44.484;11.314;2023-08-20T05:04:30;10.85;;;9.82;;
60257;SDS011;46115;44.484;11.314;2023-08-20T05:08:33;11.63;;;8.85;;
60257;SDS011;46115;44.484;11.314;2023-08-20T05:12:35;10.70;;;9.70;;
60257;SDS011;46115;44.484;11.314;2023-08-20T05:16:39;12.35;;;9.07;;
60257;SDS011;46115;44.484;11.314;2023-08-20T05:20:42;10.82;;;9.00;;
60257;SDS011;46115;44.484;11.314;2023-08-20T05:24:45;13.75;;;9.50;;
60257;SDS011;46115;44.484;11.314;2023-08-20T05:28:47;10.18;;;8.77;;
60257;SDS011;46115;44.484;11.314;2023-08-20T05:32:51;9.80;;;8.80;;
60257;SDS011;46115;44.484;11.314;2023-08-20T05:36:56;9.85;;;8.32;;
60257;SDS011;46115;44.484;11.314;2023-08-20T05:40:59;9.52;;;8.57;;
60257;SDS011;46115;44.484;11.314;2023-08-20T05:45:01;11.35;;;9.35;;
60257;SDS011;46115;44.484;11.314;2023-08-20T05:49:06;10.32;;;7.88;;
60257;SDS011;46115;44.484;11.314;2023-08-20T05:53:10;9.15;;;7.68;;
60257;SDS011;46115;44.484;11.314;2023-08-20T05:57:13;8.88;;;7.97;;
60257;SDS011;46115;44.484;11.314;2023-08-20T06:01:16;11.75;;;8.15;;
60257;SDS011;46115;44.484;11.314;2023-08-20T06:05:20;11.05;;;7.93;;
60257;SDS011;46115;44.484;11.314;2023-08-20T06:09:22;10.05;;;8.07;;
60257;SDS011;46115;44.484;11.314;2023-08-20T06:13:25;9.43;;;7.53;;
60257;SDS011;46115;44.484;11.314;2023-08-20T06:17:27;10.73;;;7.75;;
60257;SDS011;46115;44.484;11.314;2023-08-20T06:21:31;8.68;;;7.03;;
60257;SDS011;46115;44.484;11.314;2023-08-20T06:25:33;10.32;;;7.45;;
60257;SDS011;46115;44.484;11.314;2023-08-20T06:29:36;9.05;;;7.13;;
60257;SDS011;46115;44.484;11.314;2023-08-20T06:33:39;7.95;;;7.15;;
60257;SDS011;46115;44.484;11.314;2023-08-20T06:37:43;7.60;;;6.70;;
60257;SDS011;46115;44.484;11.314;2023-08-20T06:41:45;9.15;;;6.80;;
60257;SDS011;46115;44.484;11.314;2023-08-20T06:45:54;8.32;;;6.63;;
60257;SDS011;46115;44.484;11.314;2023-08-20T06:49:57;7.90;;;6.80;;
60257;SDS011;46115;44.484;11.314;2023-08-20T06:54:01;10.48;;;7.03;;
60257;SDS011;46115;44.484;11.314;2023-08-20T06:58:06;8.32;;;6.38;;
60257;SDS011;46115;44.484;11.314;2023-08-20T07:02:08;8.73;;;6.38;;
60257;SDS011;46115;44.484;11.314;2023-08-20T07:06:11;7.85;;;5.82;;
60257;SDS011;46115;44.484;11.314;2023-08-20T07:10:16;7.53;;;6.15;;
60257;SDS011;46115;44.484;11.314;2023-08-20T07:14:18;7.60;;;6.07;;
60257;SDS011;46115;44.484;11.314;2023-08-20T07:18:21;6.43;;;5.80;;
60257;SDS011;46115;44.484;11.314;2023-08-20T07:22:23;6.40;;;5.80;;
60257;SDS011;46115;44.484;11.314;2023-08-20T07:26:27;6.30;;;5.57;;
60257;SDS011;46115;44.484;11.314;2023-08-20T07:30:29;7.57;;;5.40;;
60257;SDS011;46115;44.484;11.314;2023-08-20T07:34:33;7.43;;;5.20;;
60257;SDS011;46115;44.484;11.314;2023-08-20T07:38:35;6.78;;;5.45;;
60257;SDS011;46115;44.484;11.314;2023-08-20T07:42:44;6.10;;;5.40;;
60257;SDS011;46115;44.484;11.314;2023-08-20T07:46:47;8.15;;;5.30;;
60257;SDS011;46115;44.484;11.314;2023-08-20T07:50:49;5.78;;;5.18;;
60257;SDS011;46115;44.484;11.314;2023-08-20T07:54:51;7.60;;;5.13;;
60257;SDS011;46115;44.484;11.314;2023-08-20T07:58:55;7.13;;;5.18;;
60257;SDS011;46115;44.484;11.314;2023-08-20T08:02:57;6.55;;;5.03;;
60257;SDS011;46115;44.484;11.314;2023-08-20T08:07:00;10.48;;;4.88;;
60257;SDS011;46115;44.484;11.314;2023-08-20T08:11:02;6.88;;;5.40;;
60257;SDS011;46115;44.484;11.314;2023-08-20T08:15:06;6.25;;;5.43;;
60257;SDS011;46115;44.484;11.314;2023-08-20T08:19:09;6.15;;;5.25;;
60257;SDS011;46115;44.484;11.314;2023-08-20T08:23:11;5.70;;;5.10;;
60257;SDS011;46115;44.484;11.314;2023-08-20T08:27:14;6.47;;;5.32;;
60257;SDS011;46115;44.484;11.314;2023-08-20T08:31:17;9.23;;;5.30;;
60257;SDS011;46115;44.484;11.314;2023-08-20T08:35:20;6.03;;;5.18;;
60257;SDS011;46115;44.484;11.314;2023-08-20T08:39:22;7.63;;;4.93;;
60257;SDS011;46115;44.484;11.314;2023-08-20T08:43:24;6.55;;;5.00;;
60257;SDS011;46115;44.484;11.314;2023-08-20T08:47:31;8.68;;;5.10;;
60257;SDS011;46115;44.484;11.314;2023-08-20T08:51:34;6.70;;;4.70;;
60257;SDS011;46115;44.484;11.314;2023-08-20T08:55:38;9.48;;;5.50;;
60257;SDS011;46115;44.484;11.314;2023-08-20T08:59:41;6.43;;;5.63;;
60257;SDS011;46115;44.484;11.314;2023-08-20T09:03:45;14.63;;;6.20;;
60257;SDS011;46115;44.484;11.314;2023-08-20T09:07:50;8.93;;;5.75;;
60257;SDS011;46115;44.484;11.314;2023-08-20T09:11:57;6.07;;;5.47;;
60257;SDS011;46115;44.484;11.314;2023-08-20T09:16:02;7.13;;;5.72;;
60257;SDS011;46115;44.484;11.314;2023-08-20T09:20:07;6.85;;;6.25;;
60257;SDS011;46115;44.484;11.314;2023-08-20T09:24:10;7.30;;;6.53;;
60257;SDS011;46115;44.484;11.314;2023-08-20T09:28:12;6.75;;;6.05;;
60257;SDS011;46115;44.484;11.314;2023-08-20T09:32:16;6.75;;;6.05;;
60257;SDS011;46115;44.484;11.314;2023-08-20T09:36:29;7.45;;;6.18;;
60257;SDS011;46115;44.484;11.314;2023-08-20T09:40:32;7.45;;;5.88;;
60257;SDS011;46115;44.484;11.314;2023-08-20T09:44:35;7.10;;;6.40;;
60257;SDS011;46115;44.484;11.314;2023-08-20T09:48:39;8.43;;;6.80;;
60257;SDS011;46115;44.484;11.314;2023-08-20T09:52:48;7.22;;;6.18;;
60257;SDS011;46115;44.484;11.314;2023-08-20T09:56:58;7.63;;;6.82;;
60257;SDS011;46115;44.484;11.314;2023-08-20T10:01:03;9.88;;;6.60;;
60257;SDS011;46115;44.484;11.314;2023-08-20T10:05:06;7.68;;;6.90;;
60257;SDS011;46115;44.484;11.314;2023-08-20T10:09:11;8.57;;;7.35;;
60257;SDS011;46115;44.484;11.314;2023-08-20T10:13:14;7.80;;;7.00;;
60257;SDS011;46115;44.484;11.314;2023-08-20T10:17:17;10.70;;;7.20;;
60257;SDS011;46115;44.484;11.314;2023-08-20T10:21:22;7.32;;;6.63;;
60257;SDS011;46115;44.484;11.314;2023-08-20T10:25:26;9.48;;;7.18;;
60257;SDS011;46115;44.484;11.314;2023-08-20T10:29:35;8.45;;;7.65;;
60257;SDS011;46115;44.484;11.314;2023-08-20T10:33:48;9.45;;;7.43;;
60257;SDS011;46115;44.484;11.314;2023-08-20T10:38:01;10.68;;;7.65;;
60257;SDS011;46115;44.484;11.314;2023-08-20T10:46:29;7.68;;;6.80;;
60257;SDS011;46115;44.484;11.314;2023-08-20T10:50:32;10.10;;;7.40;;
60257;SDS011;46115;44.484;11.314;2023-08-20T10:54:37;8.43;;;7.53;;
60257;SDS011;46115;44.484;11.314;2023-08-20T10:58:44;8.68;;;7.68;;
60257;SDS011;46115;44.484;11.314;2023-08-20T11:02:48;9.20;;;7.32;;
60257;SDS011;46115;44.484;11.314;2023-08-20T11:06:52;8.00;;;7.20;;
60257;SDS011;46115;44.484;11.314;2023-08-20T11:10:56;9.02;;;6.90;;
60257;SDS011;46115;44.484;11.314;2023-08-20T11:15:01;8.07;;;7.30;;
60257;SDS011;46115;44.484;11.314;2023-08-20T11:19:04;7.93;;;7.13;;
60257;SDS011;46115;44.484;11.314;2023-08-20T11:23:09;9.63;;;7.18;;
60257;SDS011;46115;44.484;11.314;2023-08-20T11:27:13;8.15;;;7.35;;
60257;SDS011;46115;44.484;11.314;2023-08-20T11:31:16;8.35;;;7.05;;
60257;SDS011;46115;44.484;11.314;2023-08-20T11:35:19;8.95;;;7.20;;
60257;SDS011;46115;44.484;11.314;2023-08-20T11:39:22;7.93;;;7.13;;
60257;SDS011;46115;44.484;11.314;2023-08-20T11:43:26;7.78;;;7.03;;
60257;SDS011;46115;44.484;11.314;2023-08-20T11:47:30;8.00;;;7.15;;
60257;SDS011;46115;44.484;11.314;2023-08-20T11:51:41;9.32;;;7.75;;
60257;SDS011;46115;44.484;11.314;2023-08-20T11:55:46;8.82;;;7.22;;
60257;SDS011;46115;44.484;11.314;2023-08-20T11:59:48;8.18;;;6.95;;
60257;SDS011;46115;44.484;11.314;2023-08-20T12:03:52;9.73;;;7.10;;
60257;SDS011;46115;44.484;11.314;2023-08-20T12:07:55;9.15;;;7.20;;
60257;SDS011;46115;44.484;11.314;2023-08-20T12:11:58;8.43;;;7.60;;
60257;SDS011;46115;44.484;11.314;2023-08-20T12:16:02;8.30;;;7.50;;
60257;SDS011;46115;44.484;11.314;2023-08-20T12:20:06;8.68;;;7.43;;
60257;SDS011;46115;44.484;11.314;2023-08-20T12:24:13;9.20;;;7.13;;
60257;SDS011;46115;44.484;11.314;2023-08-20T12:28:15;9.07;;;7.70;;
60257;SDS011;46115;44.484;11.314;2023-08-20T12:32:18;8.88;;;7.38;;
60257;SDS011;46115;44.484;11.314;2023-08-20T12:36:22;8.25;;;7.35;;
60257;SDS011;46115;44.484;11.314;2023-08-20T12:40:24;7.80;;;7.03;;
60257;SDS011;46115;44.484;11.314;2023-08-20T12:44:27;8.32;;;7.30;;
60257;SDS011;46115;44.484;11.314;2023-08-20T12:48:29;9.50;;;7.07;;
60257;SDS011;46115;44.484;11.314;2023-08-20T12:52:33;8.02;;;7.10;;
60257;SDS011;46115;44.484;11.314;2023-08-20T12:56:36;16.02;;;7.13;;
60257;SDS011;46115;44.484;11.314;2023-08-20T13:00:38;7.63;;;6.65;;
60257;SDS011;46115;44.484;11.314;2023-08-20T13:04:41;7.25;;;6.55;;
60257;SDS011;46115;44.484;11.314;2023-08-20T13:08:45;8.43;;;6.30;;
60257;SDS011;46115;44.484;11.314;2023-08-20T13:12:50;7.65;;;6.85;;
60257;SDS011;46115;44.484;11.314;2023-08-20T13:16:54;7.60;;;6.15;;
60257;SDS011;46115;44.484;11.314;2023-08-20T13:20:57;11.65;;;6.50;;
60257;SDS011;46115;44.484;11.314;2023-08-20T13:25:01;8.85;;;6.10;;
60257;SDS011;46115;44.484;11.314;2023-08-20T13:29:05;6.80;;;6.10;;
60257;SDS011;46115;44.484;11.314;2023-08-20T13:33:07;7.78;;;5.90;;
60257;SDS011;46115;44.484;11.314;2023-08-20T13:37:10;7.07;;;6.10;;
60257;SDS011;46115;44.484;11.314;2023-08-20T13:41:13;7.78;;;6.00;;
60257;SDS011;46115;44.484;11.314;2023-08-20T13:45:16;8.35;;;6.18;;
60257;SDS011;46115;44.484;11.314;2023-08-20T13:49:18;6.55;;;5.40;;
60257;SDS011;46115;44.484;11.314;2023-08-20T13:53:21;7.90;;;5.68;;
60257;SDS011;46115;44.484;11.314;2023-08-20T13:57:24;6.90;;;6.18;;
60257;SDS011;46115;44.484;11.314;2023-08-20T14:01:27;7.28;;;5.50;;
60257;SDS011;46115;44.484;11.314;2023-08-20T14:05:29;8.35;;;5.90;;
60257;SDS011;46115;44.484;11.314;2023-08-20T14:09:32;7.95;;;5.93;;
60257;SDS011;46115;44.484;11.314;2023-08-20T14:13:37;8.90;;;5.80;;
60257;SDS011;46115;44.484;11.314;2023-08-20T14:17:39;8.23;;;5.78;;
60257;SDS011;46115;44.484;11.314;2023-08-20T14:21:42;9.43;;;5.68;;
60257;SDS011;46115;44.484;11.314;2023-08-20T14:25:44;7.20;;;5.40;;
60257;SDS011;46115;44.484;11.314;2023-08-20T14:29:48;6.10;;;5.50;;
60257;SDS011;46115;44.484;11.314;2023-08-20T14:33:50;5.88;;;5.30;;
60257;SDS011;46115;44.484;11.314;2023-08-20T14:37:53;8.95;;;5.28;;
60257;SDS011;46115;44.484;11.314;2023-08-20T14:41:55;6.70;;;5.60;;
60257;SDS011;46115;44.484;11.314;2023-08-20T14:45:59;6.40;;;5.10;;
60257;SDS011;46115;44.484;11.314;2023-08-20T14:50:02;7.53;;;5.53;;
60257;SDS011;46115;44.484;11.314;2023-08-20T14:54:05;7.32;;;5.53;;
60257;SDS011;46115;44.484;11.314;2023-08-20T14:58:08;5.95;;;5.30;;
60257;SDS011;46115;44.484;11.314;2023-08-20T15:02:12;7.30;;;5.40;;
60257;SDS011;46115;44.484;11.314;2023-08-20T15:06:14;7.20;;;5.50;;
60257;SDS011;46115;44.484;11.314;2023-08-20T15:10:17;11.73;;;5.53;;
60257;SDS011;46115;44.484;11.314;2023-08-20T15:14:20;7.10;;;5.15;;
60257;SDS011;46115;44.484;11.314;2023-08-20T15:18:24;9.45;;;5.30;;
60257;SDS011;46115;44.484;11.314;2023-08-20T15:22:27;8.32;;;5.35;;
60257;SDS011;46115;44.484;11.314;2023-08-20T15:26:30;5.85;;;4.80;;
60257;SDS011;46115;44.484;11.314;2023-08-20T15:30:32;8.43;;;5.07;;
60257;SDS011;46115;44.484;11.314;2023-08-20T15:34:36;7.88;;;4.45;;
60257;SDS011;46115;44.484;11.314;2023-08-20T15:38:39;7.43;;;4.78;;
60257;SDS011;46115;44.484;11.314;2023-08-20T15:42:41;8.60;;;5.00;;
60257;SDS011;46115;44.484;11.314;2023-08-20T15:46:44;6.10;;;4.68;;
60257;SDS011;46115;44.484;11.314;2023-08-20T15:50:47;9.70;;;5.50;;
60257;SDS011;46115;44.484;11.314;2023-08-20T15:54:50;6.25;;;4.70;;
60257;SDS011;46115;44.484;11.314;2023-08-20T15:58:53;9.38;;;5.35;;
60257;SDS011;46115;44.484;11.314;2023-08-20T16:02:55;6.68;;;5.22;;
60257;SDS011;46115;44.484;11.314;2023-08-20T16:06:59;7.28;;;5.45;;
60257;SDS011;46115;44.484;11.314;2023-08-20T16:11:01;10.82;;;5.35;;
60257;SDS011;46115;44.484;11.314;2023-08-20T16:15:05;8.98;;;5.30;;
60257;SDS011;46115;44.484;11.314;2023-08-20T16:19:08;7.05;;;5.40;;
60257;SDS011;46115;44.484;11.314;2023-08-20T16:23:12;7.63;;;5.20;;
60257;SDS011;46115;44.484;11.314;2023-08-20T16:27:14;6.93;;;5.28;;
60257;SDS011;46115;44.484;11.314;2023-08-20T16:31:17;5.55;;;5.05;;
60257;SDS011;46115;44.484;11.314;2023-08-20T16:35:19;7.63;;;5.22;;
60257;SDS011;46115;44.484;11.314;2023-08-20T16:39:23;6.30;;;5.60;;
60257;SDS011;46115;44.484;11.314;2023-08-20T16:43:25;6.22;;;5.28;;
60257;SDS011;46115;44.484;11.314;2023-08-20T16:47:28;6.78;;;5.30;;
60257;SDS011;46115;44.484;11.314;2023-08-20T16:51:30;7.25;;;5.20;;
60257;SDS011;46115;44.484;11.314;2023-08-20T16:55:34;5.88;;;5.07;;
60257;SDS011;46115;44.484;11.314;2023-08-20T16:59:36;5.72;;;5.07;;
60257;SDS011;46115;44.484;11.314;2023-08-20T17:03:39;6.75;;;5.03;;
60257;SDS011;46115;44.484;11.314;2023-08-20T17:07:41;7.25;;;5.20;;
60257;SDS011;46115;44.484;11.314;2023-08-20T17:11:45;5.95;;;5.25;;
60257;SDS011;46115;44.484;11.314;2023-08-20T17:15:48;6.15;;;5.25;;
60257;SDS011;46115;44.484;11.314;2023-08-20T17:19:52;5.32;;;4.78;;
60257;SDS011;46115;44.484;11.314;2023-08-20T17:23:54;5.97;;;4.70;;
60257;SDS011;46115;44.484;11.314;2023-08-20T17:27:58;6.57;;;4.93;;
60257;SDS011;46115;44.484;11.314;2023-08-20T17:32:00;6.85;;;5.00;;
60257;SDS011;46115;44.484;11.314;2023-08-20T17:36:03;8.35;;;5.30;;
60257;SDS011;46115;44.484;11.314;2023-08-20T17:40:06;6.47;;;5.00;;
60257;SDS011;46115;44.484;11.314;2023-08-20T17:44:12;6.43;;;4.90;;
60257;SDS011;46115;44.484;11.314;2023-08-20T17:48:14;6.45;;;4.97;;
60257;SDS011;46115;44.484;11.314;2023-08-20T17:52:17;7.13;;;5.50;;
60257;SDS011;46115;44.484;11.314;2023-08-20T17:56:19;6.78;;;4.97;;
60257;SDS011;46115;44.484;11.314;2023-08-20T18:00:23;5.93;;;5.05;;
60257;SDS011;46115;44.484;11.314;2023-08-20T18:04:25;7.68;;;5.20;;
60257;SDS011;46115;44.484;11.314;2023-08-20T18:08:28;7.53;;;5.47;;
60257;SDS011;46115;44.484;11.314;2023-08-20T18:12:30;8.88;;;5.25;;
60257;SDS011;46115;44.484;11.314;2023-08-20T18:16:34;7.80;;;5.82;;
60257;SDS011;46115;44.484;11.314;2023-08-20T18:20:36;8.30;;;6.20;;
60257;SDS011;46115;44.484;11.314;2023-08-20T18:24:39;10.63;;;7.05;;
60257;SDS011;46115;44.484;11.314;2023-08-20T18:28:41;14.48;;;7.88;;
60257;SDS011;46115;44.484;11.314;2023-08-20T18:32:45;7.28;;;5.65;;
60257;SDS011;46115;44.484;11.314;2023-08-20T18:36:47;7.72;;;5.93;;
60257;SDS011;46115;44.484;11.314;2023-08-20T18:40:50;9.48;;;5.70;;
60257;SDS011;46115;44.484;11.314;2023-08-20T18:44:53;7.97;;;6.20;;
60257;SDS011;46115;44.484;11.314;2023-08-20T18:48:56;11.05;;;5.60;;
60257;SDS011;46115;44.484;11.314;2023-08-20T18:52:59;8.15;;;6.00;;
60257;SDS011;46115;44.484;11.314;2023-08-20T22:06:08;10.05;;;7.65;;
60257;SDS011;46115;44.484;11.314;2023-08-20T22:10:11;8.13;;;7.30;;
60257;SDS011;46115;44.484;11.314;2023-08-20T22:14:14;8.50;;;7.68;;
60257;SDS011;46115;44.484;11.314;2023-08-20T22:18:17;7.95;;;7.15;;
60257;SDS011;46115;44.484;11.314;2023-08-20T22:22:21;10.40;;;7.45;;
60257;SDS011;46115;44.484;11.314;2023-08-20T22:26:23;9.25;;;8.23;;
60257;SDS011;46115;44.484;11.314;2023-08-20T22:30:25;9.05;;;7.47;;
60257;SDS011;46115;44.484;11.314;2023-08-20T22:34:28;8.23;;;7.28;;
60257;SDS011;46115;44.484;11.314;2023-08-20T22:38:32;10.93;;;7.75;;
60257;SDS011;46115;44.484;11.314;2023-08-20T22:42:34;10.68;;;7.50;;
60257;SDS011;46115;44.484;11.314;2023-08-20T22:46:36;9.32;;;7.85;;
60257;SDS011;46115;44.484;11.314;2023-08-20T22:50:39;8.35;;;7.50;;
60257;SDS011;46115;44.484;11.314;2023-08-20T22:54:43;8.45;;;7.68;;
60257;SDS011;46115;44.484;11.314;2023-08-20T22:58:45;10.57;;;8.38;;
60257;SDS011;46115;44.484;11.314;2023-08-20T23:02:47;9.25;;;8.02;;
60257;SDS011;46115;44.484;11.314;2023-08-20T23:06:50;9.20;;;8.32;;
60257;SDS011;46115;44.484;11.314;2023-08-20T23:10:53;8.70;;;7.90;;
60257;SDS011;46115;44.484;11.314;2023-08-20T23:14:56;8.77;;;7.43;;
60257;SDS011;46115;44.484;11.314;2023-08-20T23:18:59;9.40;;;8.05;;
60257;SDS011;46115;44.484;11.314;2023-08-20T23:23:02;9.20;;;7.93;;
60257;SDS011;46115;44.484;11.314;2023-08-20T23:27:06;9.15;;;8.27;;
60257;SDS011;46115;44.484;11.314;2023-08-20T23:31:08;9.50;;;8.32;;
60257;SDS011;46115;44.484;11.314;2023-08-20T23:35:11;9.57;;;8.32;;
60257;SDS011;46115;44.484;11.314;2023-08-20T23:39:13;9.20;;;8.25;;
60257;SDS011;46115;44.484;11.314;2023-08-20T23:43:18;8.80;;;7.72;;
60257;SDS011;46115;44.484;11.314;2023-08-20T23:47:22;11.95;;;8.55;;
60257;SDS011;46115;44.484;11.314;2023-08-20T23:51:25;8.63;;;7.80;;
60257;SDS011;46115;44.484;11.314;2023-08-20T23:55:27;10.77;;;9.23;;
60257;SDS011;46115;44.484;11.314;2023-08-20T23:59:31;9.80;;;8.52;;
